Time;durP1;ratioP1;P1;durP2;ratioP2;P2;SDS_P1;SDS_P2;PMS_P1;PMS_P2;Temp;Humidity;BMP_temperature;BMP_pressure;BME280_temperature;BME280_humidity;BME280_pressure;Samples;Min_cycle;Max_cycle;Signal;HPM_P1;HPM_P2
2023/05/02 00:00:50;;;;;;;25.70;18.13;;;11.40;99.90;;;;;;5022419;28;20943;-80
2023/05/02 00:03:16;;;;;;;22.70;17.65;;;11.40;99.90;;;;;;5059607;28;20051;-81
2023/05/02 00:05:42;;;;;;;23.65;17.80;;;11.40;99.90;;;;;;5058862;28;20048;-77
2023/05/02 00:08:08;;;;;;;31.15;19.90;;;11.40;99.90;;;;;;5077838;28;20089;-77
2023/05/02 00:10:34;;;;;;;27.00;19.40;;;11.40;99.90;;;;;;5075047;28;20075;-77
2023/05/02 00:12:59;;;;;;;23.67;15.32;;;11.30;99.90;;;;;;5061832;28;20055;-77
2023/05/02 00:15:26;;;;;;;20.10;14.05;;;11.20;99.90;;;;;;5076612;28;20047;-78
2023/05/02 00:17:52;;;;;;;21.73;14.98;;;11.10;99.90;;;;;;5064149;28;20094;-77
2023/05/02 00:20:17;;;;;;;14.25;10.30;;;11.10;99.90;;;;;;5050860;28;20532;-78
2023/05/02 00:22:43;;;;;;;13.52;10.23;;;11.00;99.90;;;;;;5057252;28;20143;-77
2023/05/02 00:25:14;;;;;;;15.32;10.43;;;11.00;99.90;;;;;;5059923;28;20055;-76
2023/05/02 00:27:40;;;;;;;17.45;10.98;;;10.80;99.90;;;;;;5074797;28;20156;-76
2023/05/02 00:30:08;;;;;;;16.80;10.23;;;10.70;99.90;;;;;;5062138;28;20048;-76
2023/05/02 00:32:34;;;;;;;18.15;12.18;;;10.70;99.90;;;;;;5019397;28;20086;-76
2023/05/02 00:35:00;;;;;;;19.17;12.48;;;10.70;99.90;;;;;;5039727;28;20040;-76
2023/05/02 00:37:27;;;;;;;25.30;14.13;;;10.60;99.90;;;;;;5052659;28;20036;-76
2023/05/02 00:39:53;;;;;;;17.98;11.30;;;10.60;99.90;;;;;;5065648;28;20129;-77
2023/05/02 00:42:19;;;;;;;18.02;11.95;;;10.50;99.90;;;;;;5037938;28;20036;-77
2023/05/02 00:44:45;;;;;;;19.58;12.85;;;10.50;99.90;;;;;;5072474;28;20048;-76
2023/05/02 00:47:13;;;;;;;15.90;11.55;;;10.50;99.90;;;;;;5051955;28;20051;-76
2023/05/02 00:49:38;;;;;;;18.33;11.20;;;10.50;99.90;;;;;;5075723;28;20096;-77
2023/05/02 00:52:06;;;;;;;18.67;10.55;;;10.50;99.90;;;;;;5043987;28;20590;-76
2023/05/02 00:54:32;;;;;;;20.27;11.55;;;10.40;99.90;;;;;;5056790;28;20410;-76
2023/05/02 00:56:58;;;;;;;17.80;11.30;;;10.30;99.90;;;;;;5049607;28;20052;-77
2023/05/02 00:59:27;;;;;;;17.30;11.52;;;10.30;99.90;;;;;;5034584;28;20090;-76
2023/05/02 01:02:02;;;;;;;16.95;10.27;;;10.30;99.90;;;;;;5062269;28;20037;-79
2023/05/02 01:04:46;;;;;;;13.88;7.95;;;10.30;99.90;;;;;;5074853;28;20231;-80
2023/05/02 01:07:41;;;;;;;14.80;8.63;;;10.30;99.90;;;;;;5051874;28;20053;-76
2023/05/02 01:10:18;;;;;;;17.13;9.05;;;10.30;99.90;;;;;;5056348;28;20043;-76
2023/05/02 01:13:07;;;;;;;17.77;9.90;;;10.20;99.90;;;;;;5069194;28;20056;-77
2023/05/02 01:15:35;;;;;;;12.82;8.13;;;10.20;99.90;;;;;;5052657;28;20036;-80
2023/05/02 01:18:03;;;;;;;20.30;9.57;;;10.20;99.90;;;;;;5037643;28;20036;-80
2023/05/02 01:20:31;;;;;;;12.10;7.30;;;10.10;99.90;;;;;;5053089;28;20040;-76
2023/05/02 01:23:03;;;;;;;13.20;7.75;;;10.10;99.90;;;;;;5073768;28;20115;-76
2023/05/02 01:25:44;;;;;;;14.90;7.07;;;10.10;99.90;;;;;;5069414;28;20123;-76
2023/05/02 01:28:23;;;;;;;14.48;6.03;;;10.10;99.90;;;;;;5058916;28;20047;-76
2023/05/02 01:30:50;;;;;;;13.50;6.90;;;10.10;99.90;;;;;;5070253;28;20040;-76
2023/05/02 01:33:18;;;;;;;15.55;7.00;;;10.10;99.90;;;;;;5061117;28;20052;-76
2023/05/02 01:35:48;;;;;;;15.05;7.35;;;10.10;99.90;;;;;;5070448;28;20284;-76
2023/05/02 01:38:15;;;;;;;13.70;6.18;;;10.10;99.90;;;;;;5090264;28;20220;-76
2023/05/02 01:40:44;;;;;;;11.00;7.13;;;10.10;99.90;;;;;;5045519;28;20087;-77
2023/05/02 01:43:13;;;;;;;11.67;7.37;;;10.10;99.90;;;;;;5052445;28;20582;-80
2023/05/02 01:45:42;;;;;;;12.13;6.85;;;10.10;99.90;;;;;;5066569;28;20044;-80
2023/05/02 01:48:09;;;;;;;12.35;6.50;;;10.10;99.90;;;;;;5067986;28;20048;-80
2023/05/02 01:50:36;;;;;;;13.23;7.40;;;10.10;99.90;;;;;;5057058;28;20039;-80
2023/05/02 01:53:03;;;;;;;10.18;6.22;;;10.10;99.90;;;;;;5059896;28;20044;-80
2023/05/02 01:55:32;;;;;;;11.98;7.20;;;10.00;99.90;;;;;;5055839;28;20040;-80
2023/05/02 01:57:59;;;;;;;11.93;5.60;;;10.00;99.90;;;;;;5070604;28;20047;-80
2023/05/02 02:00:26;;;;;;;13.35;6.70;;;10.00;99.90;;;;;;5056914;28;20070;-80
2023/05/02 02:02:54;;;;;;;11.93;6.20;;;10.10;99.90;;;;;;5038206;28;20051;-80
2023/05/02 02:05:21;;;;;;;13.68;7.82;;;10.10;99.90;;;;;;5059946;28;20047;-80
2023/05/02 02:07:47;;;;;;;13.90;6.95;;;10.10;99.90;;;;;;5055269;28;20467;-80
2023/05/02 02:10:13;;;;;;;11.48;6.82;;;10.10;99.90;;;;;;5053340;28;20127;-80
2023/05/02 02:12:51;;;;;;;12.32;5.78;;;10.10;99.90;;;;;;5055340;28;20063;-81
2023/05/02 02:15:25;;;;;;;11.70;7.25;;;10.10;99.90;;;;;;5079670;28;20047;-81
2023/05/02 02:17:59;;;;;;;13.77;6.82;;;10.10;99.90;;;;;;5060468;28;20052;-79
2023/05/02 02:20:30;;;;;;;13.75;6.40;;;10.10;99.90;;;;;;5067200;28;20123;-79
2023/05/02 02:22:59;;;;;;;16.05;6.93;;;10.00;99.90;;;;;;5040497;28;20040;-80
2023/05/02 02:25:26;;;;;;;16.88;6.88;;;9.90;99.90;;;;;;5052875;28;20541;-79
2023/05/02 02:27:52;;;;;;;15.02;6.40;;;9.90;99.90;;;;;;5063210;28;20578;-79
2023/05/02 02:30:18;;;;;;;14.88;6.55;;;9.70;99.90;;;;;;5076467;28;20044;-79
2023/05/02 02:32:44;;;;;;;17.83;7.70;;;9.70;99.90;;;;;;5041106;28;20052;-80
2023/05/02 02:35:10;;;;;;;17.92;7.75;;;9.60;99.90;;;;;;5068859;28;20036;-80
2023/05/02 02:37:53;;;;;;;20.67;8.00;;;9.50;99.90;;;;;;5075962;28;20047;-77
2023/05/02 02:40:31;;;;;;;15.75;7.47;;;9.50;99.90;;;;;;5069677;28;20048;-76
2023/05/02 02:43:11;;;;;;;20.73;7.20;;;9.40;99.90;;;;;;5069217;28;20055;-76
2023/05/02 02:45:59;;;;;;;19.15;6.90;;;9.30;99.90;;;;;;5051045;28;20040;-77
2023/05/02 02:48:42;;;;;;;20.23;7.18;;;9.20;99.90;;;;;;5057207;28;20053;-78
2023/05/02 02:51:19;;;;;;;18.38;6.47;;;9.10;99.90;;;;;;5084225;28;20503;-77
2023/05/02 02:53:48;;;;;;;24.08;7.03;;;9.10;99.90;;;;;;5052023;28;20633;-77
2023/05/02 02:56:18;;;;;;;20.45;7.55;;;9.10;99.90;;;;;;5049500;28;20214;-77
2023/05/02 02:58:50;;;;;;;21.05;6.63;;;9.10;99.90;;;;;;5073773;28;20118;-78
2023/05/02 03:01:26;;;;;;;23.48;7.40;;;9.00;99.90;;;;;;5077865;28;20128;-77
2023/05/02 03:03:56;;;;;;;21.67;7.18;;;9.00;99.90;;;;;;5057038;28;20413;-78
2023/05/02 03:06:22;;;;;;;24.88;7.43;;;8.90;99.90;;;;;;5074696;28;20067;-80
2023/05/02 03:08:48;;;;;;;23.95;7.25;;;8.90;99.90;;;;;;5071555;28;20108;-79
2023/05/02 03:11:14;;;;;;;26.65;6.90;;;8.90;99.90;;;;;;5062708;28;20060;-76
2023/05/02 03:13:39;;;;;;;24.70;7.85;;;8.80;99.90;;;;;;5029735;28;20055;-76
2023/05/02 03:16:18;;;;;;;25.65;7.72;;;8.80;99.90;;;;;;5037110;28;20036;-77
2023/05/02 03:18:43;;;;;;;24.65;6.95;;;8.70;99.90;;;;;;5075583;28;20136;-78
2023/05/02 03:21:09;;;;;;;26.20;7.75;;;8.70;99.90;;;;;;5060474;28;20127;-78
2023/05/02 03:23:35;;;;;;;25.30;8.05;;;8.70;99.90;;;;;;5036717;28;20124;-78
2023/05/02 03:26:01;;;;;;;26.00;8.38;;;8.60;99.90;;;;;;5070602;28;20040;-78
2023/05/02 03:28:28;;;;;;;23.38;7.03;;;8.60;99.90;;;;;;5053603;28;20052;-77
2023/05/02 03:30:54;;;;;;;26.23;7.18;;;8.60;99.90;;;;;;5055864;28;20040;-81
2023/05/02 03:33:21;;;;;;;24.98;6.57;;;8.50;99.90;;;;;;5036776;28;20503;-78
2023/05/02 03:35:46;;;;;;;20.77;6.38;;;8.50;99.90;;;;;;5056146;28;20568;-77
2023/05/02 03:38:12;;;;;;;21.17;6.82;;;8.50;99.90;;;;;;5053448;28;20048;-79
2023/05/02 03:40:38;;;;;;;23.23;6.80;;;8.40;99.90;;;;;;5076531;28;20068;-80
2023/05/02 03:43:03;;;;;;;18.15;5.90;;;8.40;99.90;;;;;;5081251;28;20052;-80
2023/05/02 03:45:29;;;;;;;20.05;5.68;;;8.40;99.90;;;;;;5042943;28;20040;-79
2023/05/02 03:47:55;;;;;;;19.77;5.60;;;8.30;99.90;;;;;;5045644;28;20445;-77
2023/05/02 03:50:22;;;;;;;19.33;5.22;;;8.30;99.90;;;;;;5065501;28;20881;-80
2023/05/02 03:52:47;;;;;;;18.02;5.60;;;8.20;99.90;;;;;;5047900;28;20055;-80
2023/05/02 03:55:14;;;;;;;16.65;5.80;;;8.10;99.90;;;;;;5083398;28;20146;-77
2023/05/02 03:57:39;;;;;;;15.82;5.40;;;8.20;99.90;;;;;;5065983;28;20146;-81
2023/05/02 04:00:06;;;;;;;13.05;4.88;;;8.10;99.90;;;;;;5047250;28;20048;-79
2023/05/02 04:02:31;;;;;;;18.92;4.80;;;8.00;99.90;;;;;;5072524;28;20052;-80
2023/05/02 04:04:57;;;;;;;11.50;4.30;;;8.00;99.90;;;;;;5086840;28;20942;-80
2023/05/02 04:07:26;;;;;;;13.90;4.60;;;7.90;99.90;;;;;;5043891;28;20052;-78
2023/05/02 04:09:51;;;;;;;14.27;4.47;;;7.90;99.90;;;;;;5074230;28;20746;-79
2023/05/02 04:12:17;;;;;;;17.50;5.10;;;8.00;99.90;;;;;;5072131;28;20134;-78
2023/05/02 04:14:43;;;;;;;14.82;4.63;;;7.90;99.90;;;;;;5050954;28;20113;-79
2023/05/02 04:17:09;;;;;;;15.25;4.10;;;7.90;99.90;;;;;;5054358;28;20131;-78
2023/05/02 04:19:35;;;;;;;17.95;4.40;;;7.90;99.90;;;;;;5050957;28;20189;-78
2023/05/02 04:22:02;;;;;;;19.35;5.07;;;7.90;99.90;;;;;;5051054;28;20119;-78
2023/05/02 04:24:28;;;;;;;17.58;4.43;;;7.90;99.90;;;;;;5063976;28;20051;-76
2023/05/02 04:26:54;;;;;;;16.65;5.03;;;7.90;99.90;;;;;;5082245;28;20438;-77
2023/05/02 04:29:20;;;;;;;12.20;3.90;;;7.90;99.90;;;;;;5069593;28;20043;-78
2023/05/02 04:31:45;;;;;;;13.77;3.88;;;7.90;99.90;;;;;;5053235;28;20048;-80
2023/05/02 04:34:11;;;;;;;13.52;4.15;;;7.90;99.90;;;;;;5050839;28;20036;-79
2023/05/02 04:36:37;;;;;;;11.00;3.60;;;7.90;99.90;;;;;;5069235;28;20056;-78
2023/05/02 04:39:06;;;;;;;14.82;3.90;;;7.90;99.90;;;;;;5087742;28;20048;-77
2023/05/02 04:41:32;;;;;;;14.23;4.03;;;7.80;99.90;;;;;;5072625;28;20048;-77
2023/05/02 04:43:58;;;;;;;9.07;3.40;;;7.80;99.90;;;;;;5061082;28;20126;-79
2023/05/02 04:46:27;;;;;;;17.35;3.97;;;7.80;99.90;;;;;;5077754;28;20128;-77
2023/05/02 04:48:53;;;;;;;9.88;3.08;;;7.80;99.90;;;;;;5064982;28;20372;-78
2023/05/02 04:51:18;;;;;;;9.93;3.17;;;7.80;99.90;;;;;;5045864;28;20059;-78
2023/05/02 04:53:44;;;;;;;10.30;3.30;;;7.80;99.90;;;;;;5066490;28;20040;-78
2023/05/02 04:56:10;;;;;;;13.52;3.75;;;7.80;99.90;;;;;;5060066;28;20446;-77
2023/05/02 04:58:36;;;;;;;9.90;3.35;;;7.80;99.90;;;;;;5065449;28;20511;-77
2023/05/02 05:01:02;;;;;;;11.15;3.05;;;7.80;99.90;;;;;;5060322;28;20060;-78
2023/05/02 05:03:32;;;;;;;12.82;3.13;;;7.80;99.90;;;;;;5065123;28;20126;-78
2023/05/02 05:05:58;;;;;;;10.40;2.75;;;7.80;99.90;;;;;;5058014;28;20054;-78
2023/05/02 05:08:24;;;;;;;12.25;2.67;;;7.80;99.90;;;;;;5043882;28;20048;-77
2023/05/02 05:10:50;;;;;;;11.60;3.33;;;7.80;99.90;;;;;;5082055;28;20177;-76
2023/05/02 05:13:16;;;;;;;8.50;2.90;;;7.80;99.90;;;;;;5057013;28;20040;-77
2023/05/02 05:15:43;;;;;;;7.47;2.50;;;7.80;99.90;;;;;;5069728;28;20063;-77
2023/05/02 05:18:09;;;;;;;7.55;2.70;;;7.80;99.90;;;;;;5059620;28;20723;-76
2023/05/02 05:20:34;;;;;;;9.30;2.67;;;7.90;99.90;;;;;;5057976;28;20050;-76
2023/05/02 05:23:01;;;;;;;13.30;3.03;;;7.80;99.90;;;;;;5085802;28;20040;-78
2023/05/02 05:25:26;;;;;;;7.25;2.70;;;7.90;99.90;;;;;;5054981;28;20038;-79
2023/05/02 05:27:54;;;;;;;10.60;2.67;;;7.80;99.90;;;;;;5070155;28;20048;-79
2023/05/02 05:30:20;;;;;;;10.07;2.78;;;7.80;99.90;;;;;;5068164;28;20336;-79
2023/05/02 05:32:45;;;;;;;16.23;3.50;;;7.90;99.90;;;;;;5085344;28;20052;-79
2023/05/02 05:35:11;;;;;;;13.50;3.28;;;7.90;99.90;;;;;;5069844;28;20059;-79
2023/05/02 05:37:38;;;;;;;9.93;2.70;;;7.90;99.90;;;;;;5062489;28;20189;-77
2023/05/02 05:40:07;;;;;;;9.40;3.08;;;7.90;99.90;;;;;;5067220;28;20063;-77
2023/05/02 05:42:33;;;;;;;10.73;3.40;;;7.90;99.90;;;;;;5059325;28;20564;-77
2023/05/02 05:44:59;;;;;;;10.50;3.65;;;7.90;99.90;;;;;;5038369;28;20044;-78
2023/05/02 05:47:25;;;;;;;10.02;3.08;;;7.90;99.90;;;;;;5050683;28;20063;-78
2023/05/02 05:49:55;;;;;;;11.55;2.70;;;7.90;99.90;;;;;;5065763;28;21704;-77
2023/05/02 05:52:21;;;;;;;8.40;3.20;;;7.90;99.90;;;;;;5061023;28;20127;-77
2023/05/02 05:54:47;;;;;;;9.43;3.08;;;7.90;99.90;;;;;;5068817;28;20047;-77
2023/05/02 05:57:13;;;;;;;10.57;3.30;;;7.90;99.90;;;;;;5080058;28;20054;-78
2023/05/02 05:59:39;;;;;;;7.22;2.55;;;8.00;99.90;;;;;;5055979;28;20037;-80
2023/05/02 06:02:05;;;;;;;11.25;3.10;;;8.00;99.90;;;;;;5059980;28;20097;-79
2023/05/02 06:04:31;;;;;;;11.68;3.13;;;8.00;99.90;;;;;;5043339;28;20048;-79
2023/05/02 06:06:57;;;;;;;10.77;3.30;;;8.00;99.90;;;;;;5051499;28;20032;-77
2023/05/02 06:09:22;;;;;;;11.02;3.33;;;7.90;99.90;;;;;;5065304;28;20048;-77
2023/05/02 06:11:48;;;;;;;11.93;3.85;;;8.00;99.90;;;;;;5045438;28;20082;-76
2023/05/02 06:14:15;;;;;;;13.40;3.40;;;7.90;99.90;;;;;;5046224;28;20115;-76
2023/05/02 06:16:41;;;;;;;9.80;3.20;;;8.00;99.90;;;;;;5066077;28;20131;-77
2023/05/02 06:19:06;;;;;;;11.68;3.50;;;8.00;99.90;;;;;;5044963;28;20183;-77
2023/05/02 06:21:32;;;;;;;9.45;3.00;;;8.10;99.90;;;;;;5067744;28;20314;-77
2023/05/02 06:23:58;;;;;;;12.85;3.63;;;8.00;99.90;;;;;;5067205;28;20090;-80
2023/05/02 06:26:27;;;;;;;13.18;3.85;;;8.10;99.90;;;;;;5061674;28;20075;-76
2023/05/02 06:28:54;;;;;;;11.35;4.07;;;8.10;99.90;;;;;;5073060;28;20526;-77
2023/05/02 06:31:20;;;;;;;10.85;3.60;;;8.10;99.90;;;;;;5065536;28;20059;-78
2023/05/02 06:33:46;;;;;;;11.88;3.50;;;8.20;99.90;;;;;;5055016;28;20036;-78
2023/05/02 06:36:11;;;;;;;12.05;3.42;;;8.20;99.90;;;;;;5053986;28;20640;-79
2023/05/02 06:38:37;;;;;;;13.07;3.47;;;8.20;99.90;;;;;;5057750;28;20119;-78
2023/05/02 06:41:03;;;;;;;12.82;4.03;;;8.20;99.90;;;;;;5071980;28;20084;-78
2023/05/02 06:43:29;;;;;;;10.38;3.10;;;8.20;99.90;;;;;;5073497;28;20734;-79
2023/05/02 06:45:55;;;;;;;9.52;3.10;;;8.20;99.90;;;;;;5037745;28;20044;-79
2023/05/02 06:48:21;;;;;;;12.40;3.35;;;8.30;99.90;;;;;;5061981;28;20059;-79
2023/05/02 06:50:48;;;;;;;8.50;2.95;;;8.30;99.90;;;;;;5054161;28;20050;-78
2023/05/02 06:53:14;;;;;;;10.02;3.30;;;8.30;99.90;;;;;;5055769;28;20665;-78
2023/05/02 06:55:40;;;;;;;10.05;3.33;;;8.30;99.90;;;;;;5053654;28;20094;-78
2023/05/02 06:58:06;;;;;;;12.18;3.58;;;8.30;99.90;;;;;;5056544;28;20607;-79
2023/05/02 07:00:32;;;;;;;9.32;3.25;;;8.30;99.90;;;;;;5071995;28;20087;-77
2023/05/02 07:02:57;;;;;;;13.38;3.78;;;8.30;99.90;;;;;;5075802;28;20035;-77
2023/05/02 07:05:24;;;;;;;12.10;3.75;;;8.20;99.90;;;;;;5056613;28;20044;-78
2023/05/02 07:07:49;;;;;;;13.70;3.88;;;8.20;99.90;;;;;;5042304;28;20048;-78
2023/05/02 07:10:15;;;;;;;11.95;3.72;;;8.30;99.90;;;;;;5052947;28;20059;-79
2023/05/02 07:12:41;;;;;;;12.88;3.63;;;8.30;99.90;;;;;;5068228;28;20055;-80
2023/05/02 07:15:07;;;;;;;9.85;3.70;;;8.40;99.90;;;;;;5040925;28;20044;-78
2023/05/02 07:17:33;;;;;;;10.40;3.40;;;8.40;99.90;;;;;;5052433;28;20082;-78
2023/05/02 07:19:59;;;;;;;11.98;3.70;;;8.40;99.90;;;;;;5033329;28;20037;-79
2023/05/02 07:22:25;;;;;;;13.57;4.15;;;8.50;99.90;;;;;;5073032;28;20305;-79
2023/05/02 07:25:00;;;;;;;12.63;3.83;;;8.50;99.90;;;;;;5050014;28;20506;-80
2023/05/02 07:27:26;;;;;;;12.15;4.47;;;8.50;99.90;;;;;;5076883;28;20044;-79
2023/05/02 07:29:52;;;;;;;11.55;3.58;;;8.50;99.90;;;;;;5081181;28;20158;-79
2023/05/02 07:32:20;;;;;;;11.82;3.97;;;8.50;99.90;;;;;;5039959;28;20434;-79
2023/05/02 07:34:46;;;;;;;12.40;3.63;;;8.50;99.90;;;;;;5040115;28;20395;-79
2023/05/02 07:37:12;;;;;;;10.60;3.80;;;8.50;99.90;;;;;;5076864;28;20064;-77
2023/05/02 07:39:38;;;;;;;13.93;3.97;;;8.50;99.90;;;;;;5072981;28;20079;-81
2023/05/02 07:42:05;;;;;;;11.68;3.75;;;8.60;99.90;;;;;;5052851;28;20156;-77
2023/05/02 07:44:32;;;;;;;11.63;3.88;;;8.60;99.90;;;;;;5074938;28;20398;-81
2023/05/02 07:46:58;;;;;;;11.50;3.75;;;8.60;99.90;;;;;;5071785;28;20411;-81
2023/05/02 07:49:24;;;;;;;11.30;3.40;;;8.60;99.90;;;;;;5069158;28;20052;-81
2023/05/02 07:51:50;;;;;;;10.55;3.67;;;8.60;99.90;;;;;;5042860;28;20039;-81
2023/05/02 07:54:16;;;;;;;11.85;4.05;;;8.60;99.70;;;;;;5056122;28;20090;-81
2023/05/02 07:56:43;;;;;;;12.63;4.10;;;8.60;99.60;;;;;;5056243;28;20036;-79
2023/05/02 07:59:10;;;;;;;9.88;2.85;;;8.60;99.90;;;;;;5073484;28;20479;-82
2023/05/02 08:01:36;;;;;;;14.25;3.70;;;8.60;99.90;;;;;;5064953;28;20045;-81
2023/05/02 08:04:03;;;;;;;8.95;3.33;;;8.70;99.90;;;;;;5070803;28;20520;-79
2023/05/02 08:06:29;;;;;;;13.07;3.75;;;8.80;98.90;;;;;;5067832;28;20051;-81
2023/05/02 08:08:55;;;;;;;9.70;3.85;;;8.80;96.50;;;;;;5058686;28;20055;-80
2023/05/02 08:11:25;;;;;;;11.85;3.40;;;8.90;95.20;;;;;;5055617;28;20529;-81
2023/05/02 08:13:51;;;;;;;9.43;2.85;;;8.90;94.40;;;;;;5065603;28;20107;-81
2023/05/02 08:16:18;;;;;;;7.60;2.78;;;8.90;92.40;;;;;;5065083;28;20043;-80
2023/05/02 08:18:43;;;;;;;9.88;3.55;;;8.90;93.30;;;;;;5044904;28;20048;-81
2023/05/02 08:21:10;;;;;;;9.57;2.28;;;9.00;93.40;;;;;;5053688;28;20384;-77
2023/05/02 08:23:38;;;;;;;10.48;2.88;;;9.10;90.90;;;;;;5048348;28;20066;-81
2023/05/02 08:26:04;;;;;;;12.40;3.35;;;9.10;91.00;;;;;;5046136;28;20043;-81
2023/05/02 08:28:30;;;;;;;10.55;4.05;;;9.00;91.20;;;;;;5066830;28;20044;-81
2023/05/02 08:30:56;;;;;;;8.25;3.08;;;9.10;93.50;;;;;;5031222;28;20179;-81
2023/05/02 08:33:25;;;;;;;13.23;2.83;;;9.10;93.50;;;;;;5060766;28;20055;-80
2023/05/02 08:35:52;;;;;;;8.48;2.92;;;9.20;91.60;;;;;;5087490;28;20274;-80
2023/05/02 08:38:17;;;;;;;13.30;3.70;;;9.30;91.10;;;;;;5050026;28;20052;-80
2023/05/02 08:40:43;;;;;;;9.93;3.75;;;9.20;91.20;;;;;;5066900;28;20144;-81
2023/05/02 08:43:10;;;;;;;8.15;3.10;;;9.20;91.50;;;;;;5050032;28;20044;-81
2023/05/02 08:45:42;;;;;;;10.77;3.05;;;9.10;92.30;;;;;;5065477;28;20423;-81
2023/05/02 08:48:10;;;;;;;11.57;3.13;;;9.10;90.90;;;;;;5084667;28;20036;-77
2023/05/02 08:50:41;;;;;;;7.93;3.17;;;9.10;91.30;;;;;;5081561;28;20055;-79
2023/05/02 08:53:13;;;;;;;9.82;3.50;;;9.10;92.50;;;;;;5059475;28;20068;-80
2023/05/02 08:55:40;;;;;;;8.25;2.72;;;9.10;93.60;;;;;;5074588;28;20051;-80
2023/05/02 08:58:09;;;;;;;7.22;3.00;;;9.10;95.00;;;;;;5055383;28;20052;-79
2023/05/02 09:00:40;;;;;;;8.00;2.88;;;9.20;94.70;;;;;;5069279;28;20044;-78
2023/05/02 09:03:13;;;;;;;8.82;3.15;;;9.30;93.50;;;;;;5076347;28;21404;-78
2023/05/02 09:05:40;;;;;;;9.73;3.08;;;9.30;94.60;;;;;;5063558;28;20403;-78
2023/05/02 09:08:07;;;;;;;9.98;3.28;;;9.30;94.70;;;;;;5077938;28;20052;-78
2023/05/02 09:10:38;;;;;;;10.75;3.10;;;9.30;94.60;;;;;;5065335;28;20066;-78
2023/05/02 09:13:30;;;;;;;9.15;3.30;;;9.30;93.60;;;;;;5066912;28;20905;-79
2023/05/02 09:16:01;;;;;;;8.45;3.75;;;9.30;93.20;;;;;;5069493;28;20041;-78
2023/05/02 09:18:36;;;;;;;9.57;3.10;;;9.20;92.70;;;;;;5075482;28;20128;-80
2023/05/02 09:21:10;;;;;;;9.18;3.00;;;9.20;93.30;;;;;;5062062;28;20489;-79
2023/05/02 09:23:54;;;;;;;10.25;4.15;;;9.20;93.00;;;;;;5054203;28;20508;-79
2023/05/02 09:26:33;;;;;;;10.35;3.63;;;9.30;94.40;;;;;;5078693;28;20032;-79
2023/05/02 09:29:04;;;;;;;10.13;3.53;;;9.40;95.50;;;;;;5067472;28;20402;-78
2023/05/02 09:31:49;;;;;;;11.00;3.88;;;9.60;96.20;;;;;;5072729;28;20048;-79
2023/05/02 09:34:16;;;;;;;7.68;2.50;;;9.80;96.10;;;;;;5073166;28;20052;-77
2023/05/02 09:36:44;;;;;;;9.32;2.70;;;9.90;92.00;;;;;;5082586;28;20040;-79
2023/05/02 09:39:13;;;;;;;8.38;3.13;;;9.80;92.00;;;;;;5083676;28;20051;-78
2023/05/02 09:41:41;;;;;;;7.47;3.03;;;9.80;92.30;;;;;;5084397;28;20051;-78
2023/05/02 09:44:17;;;;;;;7.28;2.90;;;9.70;92.50;;;;;;5061837;28;20044;-79
2023/05/02 09:46:48;;;;;;;8.60;3.00;;;9.60;91.80;;;;;;5061209;28;20036;-77
2023/05/02 09:49:17;;;;;;;6.75;2.40;;;9.60;92.40;;;;;;5060994;28;20055;-80
2023/05/02 09:51:43;;;;;;;6.95;2.83;;;9.50;92.90;;;;;;5051838;28;20461;-78
2023/05/02 09:54:10;;;;;;;10.38;2.70;;;9.50;94.50;;;;;;5033857;28;20059;-80
2023/05/02 09:56:53;;;;;;;7.13;2.80;;;9.60;93.90;;;;;;5100307;28;20406;-80
2023/05/02 09:59:19;;;;;;;8.05;2.25;;;9.70;94.50;;;;;;5058903;28;20090;-77
2023/05/02 10:01:52;;;;;;;7.97;2.05;;;9.80;93.30;;;;;;5063710;28;20040;-80
2023/05/02 10:04:19;;;;;;;7.43;2.53;;;10.00;94.20;;;;;;5080602;28;20083;-79
2023/05/02 10:06:47;;;;;;;7.78;2.30;;;10.10;93.00;;;;;;5063741;28;20123;-80
2023/05/02 10:09:14;;;;;;;6.55;2.17;;;10.20;94.40;;;;;;5066296;28;20052;-80
2023/05/02 10:11:43;;;;;;;8.65;2.35;;;10.40;94.10;;;;;;5066742;28;20127;-80
2023/05/02 10:14:11;;;;;;;7.22;2.03;;;10.50;93.40;;;;;;5059591;28;20048;-77
2023/05/02 10:17:01;;;;;;;7.47;2.22;;;10.60;93.70;;;;;;5066482;28;20499;-77
2023/05/02 10:19:31;;;;;;;5.82;1.98;;;10.60;90.00;;;;;;5037968;28;20052;-77
2023/05/02 10:21:59;;;;;;;6.57;2.17;;;10.50;91.40;;;;;;5078228;28;20036;-78
2023/05/02 10:24:26;;;;;;;4.68;1.90;;;10.40;90.10;;;;;;5066783;28;20101;-78
2023/05/02 10:26:52;;;;;;;7.30;1.77;;;10.40;91.90;;;;;;5045938;28;20717;-79
2023/05/02 10:29:19;;;;;;;6.43;1.60;;;10.40;91.40;;;;;;5063997;28;20052;-76
2023/05/02 10:31:47;;;;;;;6.18;2.22;;;10.40;90.80;;;;;;5066719;28;20115;-78
2023/05/02 10:34:13;;;;;;;9.48;2.00;;;10.40;91.80;;;;;;5056072;28;20087;-78
2023/05/02 10:36:39;;;;;;;5.97;1.80;;;10.50;92.60;;;;;;5060481;28;20553;-79
2023/05/02 10:39:06;;;;;;;7.15;1.90;;;10.60;90.50;;;;;;5051517;28;20127;-79
2023/05/02 10:41:34;;;;;;;6.18;2.03;;;10.50;90.80;;;;;;5047219;28;20044;-79
2023/05/02 10:44:01;;;;;;;3.90;1.17;;;10.60;91.80;;;;;;5060134;28;20052;-79
2023/05/02 10:46:35;;;;;;;5.60;1.83;;;10.70;92.40;;;;;;5076203;28;20044;-78
2023/05/02 10:49:01;;;;;;;3.92;1.30;;;10.90;90.40;;;;;;5062231;28;20044;-79
2023/05/02 10:51:28;;;;;;;7.63;1.63;;;11.00;90.30;;;;;;5062051;28;20465;-79
2023/05/02 10:54:14;;;;;;;5.78;1.83;;;11.10;90.60;;;;;;5065872;28;20141;-79
2023/05/02 10:57:04;;;;;;;4.70;1.10;;;11.10;88.30;;;;;;5062006;28;20054;-79
2023/05/02 10:59:41;;;;;;;4.05;1.15;;;11.10;88.50;;;;;;5095087;28;20052;-81
2023/05/02 11:02:22;;;;;;;6.00;1.40;;;11.10;87.20;;;;;;5067536;28;20047;-80
2023/05/02 11:05:02;;;;;;;7.07;1.52;;;11.10;82.90;;;;;;5096876;28;20076;-80
2023/05/02 11:07:32;;;;;;;7.03;2.67;;;11.00;83.70;;;;;;5082173;28;20044;-78
2023/05/02 11:10:21;;;;;;;6.68;1.42;;;11.00;84.60;;;;;;5060315;28;20447;-78
2023/05/02 11:12:48;;;;;;;6.35;2.25;;;11.00;84.70;;;;;;5037661;28;20106;-78
2023/05/02 11:15:39;;;;;;;3.85;1.52;;;11.10;88.50;;;;;;5055741;28;20114;-79
2023/05/02 11:18:13;;;;;;;4.30;1.40;;;11.20;90.50;;;;;;5083104;28;20047;-79
2023/05/02 11:20:40;;;;;;;4.20;1.58;;;11.30;90.00;;;;;;5061904;28;20040;-80
2023/05/02 11:23:15;;;;;;;5.60;1.30;;;11.50;90.40;;;;;;5067245;28;20552;-78
2023/05/02 11:25:46;;;;;;;4.55;1.60;;;11.90;90.60;;;;;;5065418;28;20076;-78
2023/05/02 11:28:33;;;;;;;5.32;1.45;;;12.00;86.00;;;;;;5077863;28;20556;-79
2023/05/02 11:30:59;;;;;;;3.78;1.13;;;12.00;84.00;;;;;;5058038;28;20054;-78
2023/05/02 11:33:27;;;;;;;7.78;1.42;;;11.90;84.20;;;;;;5048904;28;20874;-79
2023/05/02 11:35:55;;;;;;;4.85;1.40;;;11.90;87.60;;;;;;5044093;28;20660;-79
2023/05/02 11:38:22;;;;;;;6.47;1.35;;;11.90;87.10;;;;;;5064328;28;20039;-78
2023/05/02 11:40:55;;;;;;;9.95;1.52;;;11.90;86.60;;;;;;5066023;28;20482;-78
2023/05/02 11:43:22;;;;;;;5.28;1.60;;;11.90;85.60;;;;;;5080311;28;20556;-79
2023/05/02 11:45:48;;;;;;;2.88;1.20;;;11.80;84.10;;;;;;5066385;28;20036;-79
2023/05/02 11:48:17;;;;;;;4.72;1.30;;;11.70;83.00;;;;;;5048319;28;20732;-81
2023/05/02 11:50:51;;;;;;;5.00;1.30;;;11.50;84.00;;;;;;5063037;28;20071;-81
2023/05/02 11:53:23;;;;;;;5.95;1.67;;;11.40;85.00;;;;;;5060145;28;20608;-80
2023/05/02 11:55:50;;;;;;;5.95;1.83;;;11.30;86.00;;;;;;5059428;28;20036;-80
2023/05/02 11:58:18;;;;;;;5.28;1.25;;;11.20;85.80;;;;;;5070853;28;20058;-78
2023/05/02 12:00:45;;;;;;;5.20;1.88;;;11.10;87.40;;;;;;5061102;28;20753;-78
2023/05/02 12:03:22;;;;;;;4.88;1.67;;;11.10;89.70;;;;;;5074111;28;20044;-78
2023/05/02 12:05:48;;;;;;;4.78;1.80;;;11.00;88.10;;;;;;5068848;28;20490;-79
2023/05/02 12:08:32;;;;;;;6.32;1.50;;;11.00;90.10;;;;;;5078390;28;20683;-79
2023/05/02 12:10:58;;;;;;;8.27;1.85;;;11.10;90.10;;;;;;5068480;28;20117;-80
2023/05/02 12:13:28;;;;;;;6.72;2.22;;;11.10;90.10;;;;;;5088471;28;20040;-79
2023/05/02 12:15:57;;;;;;;4.07;1.33;;;11.10;90.50;;;;;;5084530;28;21285;-78
2023/05/02 12:18:25;;;;;;;4.93;1.50;;;11.20;90.40;;;;;;5070016;28;20037;-79
2023/05/02 12:20:52;;;;;;;7.35;2.00;;;11.20;91.20;;;;;;5080172;28;20056;-79
2023/05/02 12:23:25;;;;;;;6.80;1.70;;;11.20;92.30;;;;;;5045570;28;20601;-81
2023/05/02 12:25:51;;;;;;;4.65;1.70;;;11.30;91.70;;;;;;5067972;28;20040;-80
2023/05/02 12:28:22;;;;;;;4.30;1.60;;;11.30;90.50;;;;;;5067448;28;20036;-82
2023/05/02 12:30:50;;;;;;;5.85;2.35;;;11.30;90.00;;;;;;5081044;28;20063;-80
2023/05/02 12:33:16;;;;;;;10.02;2.55;;;11.20;90.70;;;;;;5056332;28;20079;-80
2023/05/02 12:35:45;;;;;;;5.95;1.60;;;11.20;92.80;;;;;;5082974;28;20069;-80
2023/05/02 12:38:16;;;;;;;6.05;2.08;;;11.10;93.30;;;;;;5082888;28;20040;-80
2023/05/02 12:40:52;;;;;;;6.07;1.75;;;11.20;93.20;;;;;;5041241;28;20055;-80
2023/05/02 12:43:20;;;;;;;5.90;1.35;;;11.20;93.50;;;;;;5049617;28;20495;-80
2023/05/02 12:45:47;;;;;;;4.78;1.48;;;11.30;93.90;;;;;;5070931;28;20044;-79
2023/05/02 12:48:20;;;;;;;4.90;1.27;;;11.50;92.80;;;;;;5047127;28;20043;-79
2023/05/02 12:50:46;;;;;;;4.47;1.63;;;11.60;92.40;;;;;;5073478;28;20044;-79
2023/05/02 12:53:13;;;;;;;4.93;1.50;;;11.50;92.00;;;;;;5076563;28;20076;-80